Time;durP1;ratioP1;P1;durP2;ratioP2;P2;SDS_P1;SDS_P2;PMS_P1;PMS_P2;Temp;Humidity;BMP_temperature;BMP_pressure;BME280_temperature;BME280_humidity;BME280_pressure;Samples;Min_cycle;Max_cycle;Signal;HPM_P1;HPM_P2
2021/05/24 00:00:12;;;;;;;7.50;3.80;;;9.50;71.70;;;;;;5153767;27;20188;-66
2021/05/24 00:02:43;;;;;;;5.35;3.10;;;9.40;71.80;;;;;;5135278;27;20283;-66
2021/05/24 00:05:14;;;;;;;5.75;2.95;;;9.30;72.80;;;;;;5157763;27;20178;-66
2021/05/24 00:07:42;;;;;;;6.32;3.05;;;9.20;73.20;;;;;;5176667;27;20214;-66
2021/05/24 00:10:13;;;;;;;5.15;2.90;;;9.20;73.30;;;;;;5154727;27;20179;-66
2021/05/24 00:12:46;;;;;;;3.65;2.67;;;9.20;73.60;;;;;;5134974;27;20192;-67
2021/05/24 00:15:18;;;;;;;4.60;3.17;;;9.20;74.00;;;;;;5155548;27;20254;-66
2021/05/24 00:17:45;;;;;;;5.20;2.97;;;9.20;73.20;;;;;;5176329;27;20233;-66
2021/05/24 00:20:13;;;;;;;4.78;3.00;;;9.10;73.40;;;;;;5156505;27;20198;-66
2021/05/24 00:22:41;;;;;;;5.50;2.35;;;9.00;74.00;;;;;;5134630;27;20291;-66
2021/05/24 00:25:09;;;;;;;7.43;3.33;;;9.00;74.30;;;;;;5151146;27;20189;-66
2021/05/24 00:27:36;;;;;;;4.70;2.85;;;9.00;74.90;;;;;;5176418;27;20213;-66
2021/05/24 00:30:06;;;;;;;5.75;3.00;;;8.90;75.70;;;;;;5162012;27;20274;-66
2021/05/24 00:32:32;;;;;;;4.97;2.53;;;9.00;76.00;;;;;;5134742;27;20530;-65
2021/05/24 00:34:59;;;;;;;3.28;2.30;;;9.00;76.20;;;;;;5146206;27;20219;-66
2021/05/24 00:37:25;;;;;;;4.68;2.20;;;9.00;76.80;;;;;;5176055;27;20190;-66
2021/05/24 00:39:52;;;;;;;4.78;2.13;;;9.00;77.40;;;;;;5166189;27;20215;-66
2021/05/24 00:42:19;;;;;;;4.38;2.50;;;9.00;77.20;;;;;;5133670;27;20184;-66
2021/05/24 00:44:45;;;;;;;3.70;2.53;;;9.00;75.80;;;;;;5139698;27;20193;-66
2021/05/24 00:47:14;;;;;;;5.63;2.80;;;9.00;75.80;;;;;;5175864;27;20291;-66
2021/05/24 00:49:44;;;;;;;3.60;2.40;;;9.00;75.90;;;;;;5171820;27;20190;-66
2021/05/24 00:52:11;;;;;;;3.65;2.65;;;8.90;76.10;;;;;;5134284;27;20188;-66
2021/05/24 00:54:38;;;;;;;5.97;2.95;;;8.90;76.70;;;;;;5135360;27;20240;-66
2021/05/24 00:57:06;;;;;;;5.65;3.38;;;9.00;76.70;;;;;;5175639;27;20186;-66
2021/05/24 00:59:33;;;;;;;3.33;2.60;;;9.00;76.60;;;;;;5175711;27;20198;-65
2021/05/24 01:02:00;;;;;;;3.40;2.42;;;9.00;76.50;;;;;;5134079;27;20195;-65
2021/05/24 01:04:27;;;;;;;5.70;2.38;;;9.00;76.40;;;;;;5134040;27;20249;-65
2021/05/24 01:06:56;;;;;;;3.40;2.00;;;9.00;76.10;;;;;;5171521;27;20182;-66
2021/05/24 01:09:24;;;;;;;2.80;1.83;;;8.90;76.50;;;;;;5175329;27;20197;-68
2021/05/24 01:11:52;;;;;;;2.40;1.83;;;8.80;76.90;;;;;;5138927;27;20184;-66
2021/05/24 01:14:19;;;;;;;3.45;2.05;;;8.90;77.10;;;;;;5133911;27;20191;-67
2021/05/24 01:16:51;;;;;;;2.80;2.17;;;8.80;77.20;;;;;;5167139;27;20182;-66
2021/05/24 01:19:17;;;;;;;3.38;2.20;;;8.80;77.60;;;;;;5164284;27;20187;-66
2021/05/24 01:21:45;;;;;;;2.53;1.63;;;8.80;77.80;;;;;;5133710;27;20198;-66
2021/05/24 01:24:12;;;;;;;3.60;1.83;;;8.80;77.60;;;;;;5161891;27;20221;-66
2021/05/24 01:26:40;;;;;;;2.60;1.90;;;8.80;76.80;;;;;;5175280;27;20204;-66
2021/05/24 01:29:08;;;;;;;2.15;1.55;;;8.80;77.30;;;;;;5148354;27;20681;-66
2021/05/24 01:31:35;;;;;;;2.38;1.45;;;8.80;78.00;;;;;;5150290;27;20201;-66
2021/05/24 01:34:01;;;;;;;2.72;2.30;;;8.70;77.90;;;;;;5175272;27;20186;-66
2021/05/24 01:36:29;;;;;;;4.05;2.22;;;8.70;76.90;;;;;;5161052;27;20179;-66
2021/05/24 01:38:57;;;;;;;3.90;1.77;;;8.60;77.30;;;;;;5133539;27;20183;-67
2021/05/24 01:41:24;;;;;;;3.25;1.88;;;8.50;76.60;;;;;;5144427;27;20178;-66
2021/05/24 01:43:51;;;;;;;2.72;1.60;;;8.50;77.30;;;;;;5174940;27;20190;-66
2021/05/24 01:46:18;;;;;;;3.30;2.47;;;8.50;77.20;;;;;;5166134;27;20229;-65
2021/05/24 01:48:45;;;;;;;4.88;2.10;;;8.40;76.60;;;;;;5133505;28;20216;-67
2021/05/24 01:51:12;;;;;;;4.18;2.90;;;8.40;76.80;;;;;;5138265;27;20179;-66
2021/05/24 01:53:39;;;;;;;4.85;2.30;;;8.40;77.40;;;;;;5178789;27;20201;-66
2021/05/24 01:56:08;;;;;;;5.30;2.15;;;8.40;78.40;;;;;;5175680;27;20178;-66
2021/05/24 01:58:37;;;;;;;4.10;2.13;;;8.40;78.40;;;;;;5179393;27;20190;-66
2021/05/24 02:01:06;;;;;;;7.88;2.55;;;8.40;79.20;;;;;;5142352;27;20184;-65
2021/05/24 02:03:33;;;;;;;3.22;2.20;;;8.50;79.60;;;;;;5137573;27;20183;-66
2021/05/24 02:06:01;;;;;;;5.25;2.70;;;8.50;78.60;;;;;;5170965;27;20515;-66
2021/05/24 02:08:29;;;;;;;3.83;2.63;;;8.40;78.70;;;;;;5178982;27;20297;-66
2021/05/24 02:10:56;;;;;;;3.20;1.95;;;8.50;78.80;;;;;;5178327;27;20197;-65
2021/05/24 02:13:27;;;;;;;2.92;1.90;;;8.50;79.10;;;;;;5179089;27;20567;-65
2021/05/24 02:15:54;;;;;;;4.05;1.90;;;8.50;79.30;;;;;;5147927;27;20229;-66
2021/05/24 02:18:21;;;;;;;3.38;1.80;;;8.40;79.40;;;;;;5137310;27;20538;-66
2021/05/24 02:20:49;;;;;;;3.28;2.10;;;8.40;79.00;;;;;;5164326;27;20214;-66
2021/05/24 02:23:16;;;;;;;5.07;3.03;;;8.40;78.70;;;;;;5178893;27;20261;-66
2021/05/24 02:25:43;;;;;;;2.60;1.80;;;8.30;79.10;;;;;;5153394;27;20616;-66
2021/05/24 02:28:10;;;;;;;4.47;2.15;;;8.30;79.60;;;;;;5137008;27;20215;-66
2021/05/24 02:30:39;;;;;;;4.50;2.45;;;8.30;79.50;;;;;;5139576;27;20191;-66
2021/05/24 02:33:06;;;;;;;5.95;2.60;;;8.20;79.20;;;;;;5137121;27;20196;-65
2021/05/24 02:35:33;;;;;;;5.15;2.10;;;8.20;79.60;;;;;;5162377;27;20250;-65
2021/05/24 02:38:00;;;;;;;7.25;2.30;;;8.10;79.90;;;;;;5178474;27;20587;-66
2021/05/24 02:40:28;;;;;;;2.35;1.90;;;8.10;80.50;;;;;;5155176;27;20184;-65
2021/05/24 02:42:55;;;;;;;2.40;1.75;;;8.10;81.30;;;;;;5136720;27;20187;-66
2021/05/24 02:45:22;;;;;;;3.65;1.98;;;8.10;82.20;;;;;;5156665;27;20194;-66
2021/05/24 02:47:51;;;;;;;4.35;1.90;;;8.00;82.10;;;;;;5178233;27;20253;-66
2021/05/24 02:50:20;;;;;;;4.63;2.00;;;8.00;82.70;;;;;;5159455;27;20196;-65
2021/05/24 02:52:48;;;;;;;3.17;1.65;;;8.00;81.90;;;;;;5136568;27;20192;-65
2021/05/24 02:55:16;;;;;;;2.42;1.60;;;8.00;81.50;;;;;;5152234;27;20239;-65
2021/05/24 02:57:42;;;;;;;3.50;2.20;;;8.00;81.80;;;;;;5171633;27;20613;-66
2021/05/24 03:00:11;;;;;;;4.72;2.60;;;8.00;82.00;;;;;;5136512;27;20617;-66
2021/05/24 03:02:44;;;;;;;3.95;2.60;;;8.00;81.80;;;;;;5139438;27;20192;-65
2021/05/24 03:05:14;;;;;;;5.68;3.10;;;7.90;81.90;;;;;;5177070;27;20281;-65
2021/05/24 03:07:42;;;;;;;5.22;3.47;;;7.90;82.10;;;;;;5174146;27;20210;-66
2021/05/24 03:10:11;;;;;;;3.72;2.58;;;7.80;82.00;;;;;;5136348;27;20199;-65
2021/05/24 03:12:38;;;;;;;3.65;1.85;;;7.80;82.50;;;;;;5136769;27;20315;-66
2021/05/24 03:15:06;;;;;;;3.35;2.20;;;7.90;82.20;;;;;;5177542;27;20186;-67
2021/05/24 03:17:32;;;;;;;2.45;1.88;;;7.90;82.00;;;;;;5177526;27;20190;-66
2021/05/24 03:19:59;;;;;;;2.25;1.42;;;7.90;82.00;;;;;;5136586;27;20598;-67
2021/05/24 03:22:27;;;;;;;2.03;1.00;;;7.90;82.20;;;;;;5135750;27;20188;-67
2021/05/24 03:24:53;;;;;;;4.18;1.65;;;7.90;81.80;;;;;;5172979;27;20636;-67
2021/05/24 03:27:20;;;;;;;2.42;1.40;;;7.90;81.50;;;;;;5177200;27;20210;-69
2021/05/24 03:29:47;;;;;;;5.50;1.73;;;8.00;81.90;;;;;;5174448;27;20205;-67
2021/05/24 03:32:14;;;;;;;2.55;1.95;;;8.00;82.20;;;;;;5177547;27;20190;-68
2021/05/24 03:34:40;;;;;;;2.53;1.88;;;8.00;82.30;;;;;;5138296;27;20187;-67
2021/05/24 03:37:08;;;;;;;3.67;2.33;;;8.10;82.40;;;;;;5135649;27;20188;-67
2021/05/24 03:39:36;;;;;;;6.75;2.97;;;8.10;82.60;;;;;;5171408;27;20186;-67
2021/05/24 03:42:02;;;;;;;3.75;2.20;;;8.10;81.70;;;;;;5177269;27;20221;-67
2021/05/24 03:44:29;;;;;;;6.72;1.90;;;8.10;82.50;;;;;;5143379;27;20191;-66
2021/05/24 03:46:55;;;;;;;3.80;2.30;;;8.10;81.30;;;;;;5135612;27;20198;-67
2021/05/24 03:49:22;;;;;;;2.80;2.13;;;8.10;81.70;;;;;;5167117;27;20221;-66
2021/05/24 03:51:49;;;;;;;6.05;2.50;;;8.10;81.80;;;;;;5176554;27;20230;-67
2021/05/24 03:54:15;;;;;;;5.60;2.67;;;8.10;82.10;;;;;;5147088;27;20216;-67
2021/05/24 03:56:43;;;;;;;3.78;2.55;;;8.00;82.10;;;;;;5135315;27;20196;-67
2021/05/24 03:59:10;;;;;;;2.90;2.20;;;8.00;82.40;;;;;;5162987;27;20212;-68
2021/05/24 04:01:38;;;;;;;3.47;2.30;;;8.10;82.60;;;;;;5173468;27;20187;-67
2021/05/24 04:04:06;;;;;;;3.42;2.00;;;8.00;82.80;;;;;;5177252;27;20193;-66
2021/05/24 04:06:33;;;;;;;3.50;1.63;;;8.10;82.70;;;;;;5153096;27;20195;-66
2021/05/24 04:09:02;;;;;;;4.57;2.05;;;8.10;83.20;;;;;;5159570;27;20575;-67
2021/05/24 04:11:29;;;;;;;2.35;1.48;;;8.10;83.00;;;;;;5155278;27;20188;-66
2021/05/24 04:13:56;;;;;;;2.40;1.40;;;8.10;82.50;;;;;;5135434;27;20187;-67
2021/05/24 04:16:23;;;;;;;3.95;1.80;;;8.10;82.40;;;;;;5152971;27;20189;-67
2021/05/24 04:18:51;;;;;;;2.25;1.48;;;8.10;82.40;;;;;;5155046;27;20226;-67
2021/05/24 04:21:18;;;;;;;2.30;1.48;;;8.10;82.60;;;;;;5150183;27;20186;-66
2021/05/24 04:23:45;;;;;;;3.28;1.80;;;8.10;82.10;;;;;;5176142;27;20250;-67
2021/05/24 04:26:14;;;;;;;2.42;1.60;;;8.10;82.20;;;;;;5163310;27;20226;-68
2021/05/24 04:28:41;;;;;;;5.05;2.28;;;8.20;82.60;;;;;;5152070;27;20202;-66
2021/05/24 04:31:09;;;;;;;2.67;1.80;;;8.20;82.40;;;;;;5165732;27;20184;-67
2021/05/24 04:33:36;;;;;;;4.55;2.10;;;8.30;82.40;;;;;;5134835;27;20223;-66
2021/05/24 04:36:03;;;;;;;4.05;3.28;;;8.30;82.50;;;;;;5142182;27;20679;-67
2021/05/24 04:38:29;;;;;;;4.15;2.38;;;8.40;82.80;;;;;;5162405;27;20183;-68
2021/05/24 04:40:57;;;;;;;3.78;2.45;;;8.50;82.20;;;;;;5138979;27;20186;-67
2021/05/24 04:43:28;;;;;;;2.70;1.70;;;8.50;81.90;;;;;;5175992;27;20193;-66
2021/05/24 04:45:55;;;;;;;4.22;2.28;;;8.50;81.60;;;;;;5163492;27;20226;-66
2021/05/24 04:48:22;;;;;;;2.80;2.00;;;8.50;81.80;;;;;;5144887;27;20249;-66
2021/05/24 04:50:49;;;;;;;2.53;1.98;;;8.60;82.20;;;;;;5176234;27;20197;-66
2021/05/24 04:53:16;;;;;;;4.10;2.55;;;8.60;82.00;;;;;;5168137;27;20192;-67
2021/05/24 04:55:44;;;;;;;5.28;2.85;;;8.60;81.40;;;;;;5134354;27;20672;-66
2021/05/24 04:58:11;;;;;;;2.83;2.10;;;8.70;81.50;;;;;;5140607;27;20269;-67
2021/05/24 05:00:38;;;;;;;3.33;2.50;;;8.70;81.60;;;;;;5176147;27;20263;-66
2021/05/24 05:03:05;;;;;;;5.22;2.45;;;8.80;81.40;;;;;;5172432;27;20661;-67
2021/05/24 05:05:34;;;;;;;3.50;1.95;;;8.80;81.30;;;;;;5175669;27;20197;-67
2021/05/24 05:08:01;;;;;;;2.58;1.83;;;8.90;81.70;;;;;;5172050;27;20679;-67
2021/05/24 05:10:27;;;;;;;2.70;2.10;;;8.90;81.10;;;;;;5175507;27;20656;-66
2021/05/24 05:12:54;;;;;;;3.70;2.72;;;9.00;80.60;;;;;;5172284;27;20184;-66
2021/05/24 05:15:23;;;;;;;4.10;2.55;;;8.90;80.40;;;;;;5175109;27;20186;-67
2021/05/24 05:17:49;;;;;;;8.88;3.40;;;8.90;80.40;;;;;;5171476;27;20198;-67
2021/05/24 05:20:16;;;;;;;4.68;3.47;;;9.00;81.10;;;;;;5133782;27;20244;-67
2021/05/24 05:22:44;;;;;;;3.83;2.67;;;9.00;81.60;;;;;;5133386;27;20220;-67
2021/05/24 05:25:12;;;;;;;3.13;2.10;;;9.00;81.10;;;;;;5174577;27;20178;-67
2021/05/24 05:27:39;;;;;;;5.63;2.50;;;9.00;80.10;;;;;;5174053;27;20214;-67
2021/05/24 05:30:07;;;;;;;2.95;2.20;;;9.00;81.10;;;;;;5134155;27;20558;-66
2021/05/24 05:32:34;;;;;;;6.38;2.00;;;9.00;81.00;;;;;;5133881;27;20196;-66
2021/05/24 05:35:01;;;;;;;2.72;1.65;;;9.10;81.20;;;;;;5135994;27;20195;-67
2021/05/24 05:37:28;;;;;;;2.45;1.85;;;9.10;81.30;;;;;;5133833;27;20214;-67
2021/05/24 05:39:57;;;;;;;3.85;1.98;;;9.20;82.20;;;;;;5172420;27;20274;-66
2021/05/24 05:42:24;;;;;;;4.15;2.33;;;9.20;82.10;;;;;;5175535;27;20273;-67
2021/05/24 05:44:51;;;;;;;3.20;1.75;;;9.30;81.40;;;;;;5171283;27;20552;-69
2021/05/24 05:47:18;;;;;;;7.22;1.88;;;9.30;81.00;;;;;;5153072;27;20191;-66
2021/05/24 05:49:48;;;;;;;3.60;1.70;;;9.40;80.90;;;;;;5136704;27;20204;-67
2021/05/24 05:52:17;;;;;;;2.83;2.08;;;9.40;80.70;;;;;;5165785;27;20185;-67
2021/05/24 05:54:45;;;;;;;2.50;1.80;;;9.50;81.30;;;;;;5175303;27;20191;-66
2021/05/24 05:57:13;;;;;;;2.33;1.52;;;9.60;81.40;;;;;;5171733;27;20183;-67
2021/05/24 05:59:40;;;;;;;2.85;2.00;;;9.70;81.60;;;;;;5140882;27;20188;-67
2021/05/24 06:02:07;;;;;;;4.85;2.67;;;9.80;81.70;;;;;;5161639;27;20656;-67
2021/05/24 06:04:34;;;;;;;2.33;1.88;;;10.00;80.10;;;;;;5175105;27;20182;-67
2021/05/24 06:07:00;;;;;;;2.28;1.90;;;10.10;78.60;;;;;;5171867;27;20186;-67
2021/05/24 06:09:27;;;;;;;6.95;2.20;;;10.10;78.10;;;;;;5144650;27;20240;-67
2021/05/24 06:11:53;;;;;;;4.97;2.05;;;10.20;78.50;;;;;;5155137;27;20193;-66
2021/05/24 06:14:22;;;;;;;6.07;4.05;;;10.30;79.30;;;;;;5175247;27;20194;-66
2021/05/24 06:16:49;;;;;;;3.90;2.92;;;10.50;80.30;;;;;;5171764;27;20633;-67
2021/05/24 06:19:16;;;;;;;3.80;2.92;;;10.70;80.20;;;;;;5175011;27;20206;-67
2021/05/24 06:21:44;;;;;;;5.03;3.30;;;10.90;79.90;;;;;;5157810;27;20179;-67
2021/05/24 06:24:11;;;;;;;3.20;2.55;;;11.10;77.70;;;;;;5133046;28;20245;-67
2021/05/24 06:26:39;;;;;;;3.95;3.00;;;11.20;76.40;;;;;;5163475;27;20175;-67
2021/05/24 06:29:06;;;;;;;2.58;1.70;;;11.30;73.70;;;;;;5174844;27;20218;-67
2021/05/24 06:31:34;;;;;;;2.63;1.70;;;11.30;74.90;;;;;;5143214;27;20231;-67
2021/05/24 06:34:00;;;;;;;3.28;1.83;;;11.50;74.70;;;;;;5133187;28;20203;-67
2021/05/24 06:36:27;;;;;;;6.55;2.92;;;11.60;75.50;;;;;;5157774;27;20529;-67
2021/05/24 06:38:54;;;;;;;6.10;3.95;;;11.80;75.60;;;;;;5176891;27;20186;-67
2021/05/24 06:41:21;;;;;;;5.35;2.30;;;11.90;74.40;;;;;;5153002;27;20665;-67
2021/05/24 06:43:47;;;;;;;2.38;1.23;;;12.00;74.30;;;;;;5137074;27;20187;-67
2021/05/24 06:46:14;;;;;;;2.63;1.45;;;12.10;74.50;;;;;;5139218;27;20546;-67
2021/05/24 06:48:42;;;;;;;2.75;1.50;;;12.30;73.30;;;;;;5139479;27;20563;-67
2021/05/24 06:51:09;;;;;;;1.80;1.25;;;12.40;73.40;;;;;;5136827;27;20653;-68
2021/05/24 06:53:36;;;;;;;3.33;1.60;;;12.60;72.40;;;;;;5142727;27;20532;-67
2021/05/24 06:56:03;;;;;;;4.00;1.70;;;12.70;72.00;;;;;;5165239;27;20354;-67
2021/05/24 06:58:30;;;;;;;2.30;1.88;;;12.90;70.70;;;;;;5139326;27;20191;-67
2021/05/24 07:00:56;;;;;;;2.80;1.55;;;13.00;70.20;;;;;;5137031;27;20184;-67
2021/05/24 07:03:23;;;;;;;2.20;1.67;;;13.20;70.70;;;;;;5136727;27;20278;-68
2021/05/24 07:05:51;;;;;;;4.50;2.50;;;13.30;71.10;;;;;;5167960;27;20560;-67
2021/05/24 07:08:17;;;;;;;3.00;1.80;;;13.50;71.40;;;;;;5136477;27;20219;-68
2021/05/24 07:10:44;;;;;;;3.45;1.90;;;13.60;70.90;;;;;;5138858;27;20191;-68
2021/05/24 07:13:11;;;;;;;4.15;1.60;;;13.70;71.20;;;;;;5136468;27;20191;-67
2021/05/24 07:15:38;;;;;;;2.65;1.60;;;13.80;69.70;;;;;;5168116;27;20273;-67
2021/05/24 07:18:06;;;;;;;2.80;1.80;;;13.90;69.90;;;;;;5149620;27;20212;-68
2021/05/24 07:20:33;;;;;;;2.57;1.57;;;14.10;68.70;;;;;;5139331;27;20195;-68
2021/05/24 07:23:01;;;;;;;2.50;2.10;;;14.30;68.20;;;;;;5139122;27;20560;-67
2021/05/24 07:25:28;;;;;;;2.10;1.43;;;14.50;66.40;;;;;;5146136;27;20524;-68
2021/05/24 07:27:55;;;;;;;2.70;1.50;;;14.60;63.30;;;;;;5138351;27;20534;-67
2021/05/24 07:30:22;;;;;;;3.63;1.90;;;14.60;63.90;;;;;;5135239;27;20449;-68
2021/05/24 07:32:49;;;;;;;3.50;1.83;;;14.70;64.50;;;;;;5150853;27;20436;-68
2021/05/24 07:35:16;;;;;;;2.00;1.30;;;14.80;64.50;;;;;;5154123;27;20437;-67
2021/05/24 07:37:42;;;;;;;3.80;1.33;;;15.00;64.30;;;;;;5153872;27;20466;-68
2021/05/24 07:40:13;;;;;;;2.17;1.20;;;15.20;64.80;;;;;;5153408;27;20509;-68
2021/05/24 07:42:41;;;;;;;2.07;1.03;;;15.30;62.30;;;;;;5153792;27;20428;-68
2021/05/24 07:45:10;;;;;;;1.97;1.27;;;15.30;62.50;;;;;;5153999;27;20464;-67
2021/05/24 07:47:38;;;;;;;2.13;1.00;;;15.40;61.40;;;;;;5151304;27;20425;-69
2021/05/24 07:50:06;;;;;;;2.23;1.10;;;15.30;59.80;;;;;;5149024;27;20436;-68
2021/05/24 07:52:33;;;;;;;1.70;0.97;;;15.30;61.50;;;;;;5150361;27;21699;-67
2021/05/24 07:55:01;;;;;;;2.33;1.70;;;15.30;61.80;;;;;;5153743;27;20436;-67
2021/05/24 07:57:29;;;;;;;2.63;1.70;;;15.40;61.30;;;;;;5152958;27;20433;-69
2021/05/24 07:59:56;;;;;;;3.00;1.13;;;15.40;60.80;;;;;;5153404;27;20996;-68
2021/05/24 08:02:23;;;;;;;2.17;1.30;;;15.30;59.80;;;;;;5140310;27;20445;-68
2021/05/24 08:04:52;;;;;;;2.50;1.70;;;15.30;59.60;;;;;;5135466;27;20445;-68
2021/05/24 08:07:19;;;;;;;2.27;1.43;;;15.20;60.00;;;;;;5150485;27;20897;-67
2021/05/24 08:09:47;;;;;;;2.10;1.20;;;15.30;61.80;;;;;;5152991;27;20982;-68
2021/05/24 08:12:17;;;;;;;3.00;1.70;;;15.30;62.00;;;;;;5142197;27;20448;-68
2021/05/24 08:14:45;;;;;;;3.00;1.20;;;15.30;60.50;;;;;;5135310;27;20429;-69
2021/05/24 08:17:12;;;;;;;2.13;1.00;;;15.20;59.90;;;;;;5160358;27;20932;-68
2021/05/24 08:19:39;;;;;;;3.30;1.30;;;15.20;59.80;;;;;;5176744;27;20436;-67
2021/05/24 08:22:07;;;;;;;3.30;1.53;;;15.20;60.70;;;;;;5150262;27;20923;-68
2021/05/24 08:24:34;;;;;;;3.33;1.97;;;15.10;59.80;;;;;;5133912;27;20588;-68
2021/05/24 08:27:01;;;;;;;3.30;1.40;;;15.10;60.00;;;;;;5153053;27;20427;-67
2021/05/24 08:29:28;;;;;;;2.30;1.50;;;15.10;60.20;;;;;;5133518;27;20975;-68
2021/05/24 08:31:56;;;;;;;3.13;1.70;;;15.10;59.40;;;;;;5150674;27;20469;-67
2021/05/24 08:34:28;;;;;;;2.27;1.13;;;15.00;60.10;;;;;;5176567;27;20758;-68
2021/05/24 08:36:55;;;;;;;2.73;2.10;;;14.90;61.50;;;;;;5153565;27;21000;-68
2021/05/24 08:39:21;;;;;;;2.13;1.23;;;14.90;61.70;;;;;;5175891;27;20964;-68
2021/05/24 08:41:52;;;;;;;2.20;1.30;;;14.90;61.80;;;;;;5130611;27;20502;-67
2021/05/24 08:44:29;;;;;;;3.73;1.40;;;14.90;61.50;;;;;;5134358;27;20437;-69
2021/05/24 08:46:57;;;;;;;1.97;0.90;;;14.80;62.30;;;;;;5142411;27;20443;-69
2021/05/24 08:49:30;;;;;;;2.10;0.97;;;14.80;63.30;;;;;;5138617;27;20556;-68
2021/05/24 08:51:57;;;;;;;4.03;1.50;;;14.70;64.90;;;;;;5134032;27;20530;-68
2021/05/24 08:54:24;;;;;;;2.30;1.40;;;14.70;65.70;;;;;;5134459;27;20471;-68
2021/05/24 08:56:51;;;;;;;2.10;1.23;;;14.60;65.30;;;;;;5134457;27;20524;-67
2021/05/24 08:59:17;;;;;;;2.10;1.20;;;14.60;65.80;;;;;;5134306;27;20465;-68
2021/05/24 09:01:44;;;;;;;3.53;1.40;;;14.60;65.30;;;;;;5133050;27;20931;-68
2021/05/24 09:04:11;;;;;;;2.23;1.30;;;14.60;65.30;;;;;;5136112;27;20529;-68
2021/05/24 09:06:40;;;;;;;16.37;9.07;;;14.70;65.80;;;;;;5134347;27;20774;-69
2021/05/24 09:09:14;;;;;;;6.37;3.30;;;14.80;65.70;;;;;;5134302;27;20608;-68
2021/05/24 09:11:41;;;;;;;3.30;2.30;;;14.80;65.50;;;;;;5145116;27;20448;-69
2021/05/24 09:14:19;;;;;;;3.23;1.83;;;14.90;66.50;;;;;;5151917;27;20432;-68
2021/05/24 09:16:54;;;;;;;9.80;5.87;;;15.00;67.60;;;;;;5148232;27;20440;-68
2021/05/24 09:19:22;;;;;;;39.83;24.00;;;15.00;65.20;;;;;;5152057;27;20443;-68
2021/05/24 09:21:50;;;;;;;7.23;4.07;;;15.00;64.50;;;;;;5133947;27;20533;-68
2021/05/24 09:24:31;;;;;;;4.17;2.20;;;15.10;64.30;;;;;;5133791;27;20990;-68
2021/05/24 09:26:59;;;;;;;4.30;3.53;;;15.20;63.60;;;;;;5148883;27;20786;-68
2021/05/24 09:29:26;;;;;;;6.57;3.20;;;15.30;61.50;;;;;;5151954;27;20518;-71
2021/05/24 09:32:16;;;;;;;3.13;2.13;;;15.30;61.10;;;;;;5151159;27;20463;-68
2021/05/24 09:34:46;;;;;;;4.97;3.67;;;15.30;61.20;;;;;;5150128;27;20541;-68
2021/05/24 09:37:20;;;;;;;4.07;2.90;;;15.50;61.10;;;;;;5144400;27;20429;-68
2021/05/24 09:39:47;;;;;;;4.33;1.70;;;15.60;61.60;;;;;;5138342;27;20905;-69
2021/05/24 09:42:16;;;;;;;2.37;1.40;;;15.90;61.50;;;;;;5151641;27;20812;-68
2021/05/24 09:44:46;;;;;;;2.80;1.60;;;16.20;61.10;;;;;;5149846;27;20485;-67
2021/05/24 09:47:14;;;;;;;1.70;1.10;;;16.40;62.00;;;;;;5151558;27;20462;-68
2021/05/24 09:49:44;;;;;;;2.33;1.50;;;16.70;62.30;;;;;;5147955;27;20472;-69
2021/05/24 09:52:12;;;;;;;2.87;1.87;;;16.90;60.10;;;;;;5148445;27;20433;-68
2021/05/24 09:54:40;;;;;;;4.60;1.70;;;17.10;60.40;;;;;;5150961;27;20440;-68
2021/05/24 09:57:12;;;;;;;6.47;2.10;;;17.40;59.90;;;;;;5147925;27;20429;-68
2021/05/24 09:59:39;;;;;;;2.70;1.80;;;17.60;58.30;;;;;;5151239;27;20823;-68
2021/05/24 10:02:08;;;;;;;3.83;1.57;;;17.80;58.90;;;;;;5150309;27;20456;-68
2021/05/24 10:04:41;;;;;;;2.90;1.23;;;17.90;58.90;;;;;;5148001;27;20476;-68
2021/05/24 10:07:08;;;;;;;2.10;1.50;;;18.20;59.10;;;;;;5146814;27;20441;-68
2021/05/24 10:09:36;;;;;;;2.10;1.20;;;18.30;58.20;;;;;;5146382;27;20561;-69
2021/05/24 10:12:06;;;;;;;1.90;0.90;;;18.40;58.00;;;;;;5147141;27;20519;-68
2021/05/24 10:14:33;;;;;;;3.37;1.63;;;18.50;58.30;;;;;;5153127;27;20437;-68
2021/05/24 10:17:05;;;;;;;2.30;1.20;;;18.50;57.70;;;;;;5147125;27;20441;-68
2021/05/24 10:19:33;;;;;;;2.80;1.37;;;18.50;54.90;;;;;;5151197;27;20801;-68
2021/05/24 10:21:59;;;;;;;2.50;1.30;;;18.40;55.10;;;;;;5153002;27;20440;-68
2021/05/24 10:24:29;;;;;;;8.13;3.60;;;18.30;55.90;;;;;;5155564;27;20949;-68
2021/05/24 10:26:59;;;;;;;7.17;2.37;;;18.40;55.40;;;;;;5153102;27;20440;-68
2021/05/24 10:29:26;;;;;;;4.03;2.13;;;18.30;54.00;;;;;;5149704;27;20472;-68
2021/05/24 10:31:53;;;;;;;3.43;1.80;;;18.40;55.10;;;;;;5155310;27;20798;-68
2021/05/24 10:34:22;;;;;;;5.67;1.83;;;18.40;55.80;;;;;;5155073;27;20830;-69
2021/05/24 10:37:08;;;;;;;2.40;1.80;;;18.50;56.20;;;;;;5154132;27;20489;-69
2021/05/24 10:39:48;;;;;;;3.17;1.70;;;18.50;56.20;;;;;;5138128;27;20822;-68
2021/05/24 10:42:16;;;;;;;4.50;2.10;;;18.50;56.10;;;;;;5137425;27;20429;-68
2021/05/24 10:44:45;;;;;;;6.23;1.43;;;18.50;56.50;;;;;;5148368;27;20894;-69
2021/05/24 10:47:16;;;;;;;4.00;1.83;;;18.50;56.50;;;;;;5154713;27;20930;-68
2021/05/24 10:50:01;;;;;;;5.73;3.10;;;18.40;55.60;;;;;;5148370;27;20513;-68
2021/05/24 10:52:28;;;;;;;4.80;2.70;;;18.50;56.00;;;;;;5140579;27;20515;-68
2021/05/24 10:54:55;;;;;;;3.10;1.90;;;18.50;56.30;;;;;;5150043;27;20467;-67
2021/05/24 10:57:23;;;;;;;3.67;1.90;;;18.50;57.00;;;;;;5151834;27;20479;-70
2021/05/24 10:59:59;;;;;;;2.50;1.40;;;18.60;58.90;;;;;;5153126;27;20432;-69
2021/05/24 11:02:31;;;;;;;3.00;0.90;;;18.70;59.70;;;;;;5150137;27;20445;-69
2021/05/24 11:05:07;;;;;;;2.33;1.00;;;18.80;60.00;;;;;;5148502;27;20448;-70
2021/05/24 11:07:35;;;;;;;2.00;0.97;;;18.90;60.20;;;;;;5147481;27;20800;-68
2021/05/24 11:10:40;;;;;;;2.20;1.30;;;19.00;61.20;;;;;;5152933;27;20534;-68
2021/05/24 11:13:32;;;;;;;7.57;5.57;;;19.10;62.50;;;;;;5141768;27;20477;-69
2021/05/24 11:16:20;;;;;;;8.10;4.77;;;19.20;62.40;;;;;;5137887;27;20440;-69
2021/05/24 11:18:47;;;;;;;11.33;6.13;;;19.30;59.80;;;;;;5145239;27;20973;-69
2021/05/24 11:21:19;;;;;;;3.23;2.27;;;19.30;58.40;;;;;;5135976;27;20675;-68
2021/05/24 11:26:50;;;;;;;3.07;1.30;;;19.20;59.20;;;;;;5075808;28;20424;-68
2021/05/24 11:29:19;;;;;;;1.90;1.10;;;19.10;59.30;;;;;;5137108;27;20499;-69
2021/05/24 11:31:48;;;;;;;2.67;1.30;;;19.00;59.30;;;;;;5147580;27;20437;-69
2021/05/24 11:34:34;;;;;;;2.23;1.07;;;19.00;59.30;;;;;;5150832;27;20456;-69
2021/05/24 11:37:03;;;;;;;3.97;1.20;;;19.00;59.30;;;;;;5150579;27;20445;-68
2021/05/24 11:39:36;;;;;;;2.80;1.70;;;19.00;58.50;;;;;;5152567;27;20478;-68
2021/05/24 11:42:06;;;;;;;2.37;1.27;;;19.00;56.20;;;;;;5134145;27;21180;-68
2021/05/24 11:44:37;;;;;;;1.70;0.90;;;19.10;56.60;;;;;;5139274;27;20433;-68
2021/05/24 11:47:07;;;;;;;2.00;1.40;;;19.10;54.60;;;;;;5143034;27;20566;-69
2021/05/24 11:49:37;;;;;;;1.63;0.80;;;19.10;53.20;;;;;;5147982;27;20475;-68
2021/05/24 11:52:06;;;;;;;2.70;1.47;;;19.20;53.10;;;;;;5134219;27;20450;-69
2021/05/24 11:54:33;;;;;;;4.93;2.57;;;19.20;51.80;;;;;;5144630;27;20438;-69
2021/05/24 11:57:02;;;;;;;6.07;3.37;;;19.30;50.70;;;;;;5147972;27;20532;-68
2021/05/24 11:59:29;;;;;;;6.20;3.00;;;19.20;49.90;;;;;;5141670;27;20919;-68
2021/05/24 12:02:03;;;;;;;34.93;19.30;;;19.20;49.30;;;;;;5142227;27;20481;-69
2021/05/24 12:04:32;;;;;;;4.53;2.40;;;19.20;50.70;;;;;;5135970;27;20473;-68
2021/05/24 12:07:04;;;;;;;2.80;1.50;;;19.10;50.90;;;;;;5133676;27;20486;-68
2021/05/24 12:09:48;;;;;;;2.07;0.90;;;19.10;52.70;;;;;;5138740;27;20530;-69
2021/05/24 12:12:17;;;;;;;2.20;0.90;;;19.10;54.60;;;;;;5133249;27;20429;-69
2021/05/24 12:14:46;;;;;;;1.83;1.10;;;19.10;51.10;;;;;;5140933;27;20442;-70
2021/05/24 12:17:16;;;;;;;2.30;1.10;;;19.00;51.70;;;;;;5147522;27;20428;-69
2021/05/24 12:19:44;;;;;;;2.33;0.90;;;19.00;53.30;;;;;;5151735;27;20512;-68
2021/05/24 12:22:13;;;;;;;2.33;0.90;;;19.00;52.90;;;;;;5150265;27;20851;-69
2021/05/24 12:24:43;;;;;;;1.70;0.70;;;19.00;53.40;;;;;;5151298;27;20515;-69
2021/05/24 12:27:14;;;;;;;5.70;0.80;;;19.00;53.20;;;;;;5148073;27;20437;-69
2021/05/24 12:30:10;;;;;;;3.67;1.30;;;19.00;52.10;;;;;;5144861;27;20476;-68
2021/05/24 12:32:41;;;;;;;2.23;1.20;;;19.00;50.90;;;;;;5141170;27;20452;-69
2021/05/24 12:35:14;;;;;;;1.80;0.90;;;19.10;52.00;;;;;;5147958;27;20440;-69
2021/05/24 12:37:47;;;;;;;1.77;1.30;;;19.20;51.40;;;;;;5142138;27;20466;-69
2021/05/24 12:40:14;;;;;;;3.70;0.90;;;19.20;50.40;;;;;;5141690;27;20432;-69
2021/05/24 12:42:42;;;;;;;2.47;1.00;;;19.20;51.40;;;;;;5135638;27;21239;-69
2021/05/24 12:45:11;;;;;;;2.57;1.10;;;19.10;51.50;;;;;;5132905;27;20465;-68
2021/05/24 12:47:40;;;;;;;1.90;0.90;;;19.20;51.40;;;;;;5132669;27;20438;-69
2021/05/24 12:50:11;;;;;;;1.57;0.60;;;19.20;51.20;;;;;;5143891;27;20476;-69
2021/05/24 12:52:38;;;;;;;4.27;1.20;;;19.20;51.20;;;;;;5151122;27;20481;-69
2021/05/24 12:55:12;;;;;;;2.23;0.90;;;19.20;49.90;;;;;;5143201;27;20441;-69
2021/05/24 12:57:43;;;;;;;2.07;0.90;;;19.20;50.20;;;;;;5144731;27;20512;-69
2021/05/24 13:00:11;;;;;;;5.70;1.10;;;19.20;50.40;;;;;;5141757;27;20456;-69